74V

Roosevelt Municipal Airport

Roosevelt, Utah, USA
METAR K74V 260315Z AUTO 21004KT 10SM CLR 12/M03 A3010 RMK AO2
Observed Flight Rules
Apr-26 @ 03:15 UTC (16 minutes ago) Visual Flight Rules
Wind Visibility Clouds
210° at 4 knots 10 miles
  • Clear skies
Temperatures Readings
Current 12°C / 54°F
Dewpoint -3°C / 27°F
Humidity 35%
Altimeter 30.1" Hg
Pressure 1019 hPa
Elevation 1576
METAR K74V 260315Z AUTO 21004KT 10SM CLR 12/M03 A3010 RMK AO2
Observed Flight Rules
Apr-26 @ 03:15 UTC
(16 minutes ago)
VFR
Wind Visibility
210° at 4 knots 10 miles
Clouds
  • Clear skies
Temperature Dewpoint
12°C / 54°F -3°C / 27°F
Humidity Altimeter Pressure
35% 30.1" Hg 1019 hPa